Time;durP1;ratioP1;P1;durP2;ratioP2;P2;SDS_P1;SDS_P2;PMS_P1;PMS_P2;Temp;Humidity;BMP_temperature;BMP_pressure;BME280_temperature;BME280_humidity;BME280_pressure;Samples;Min_cycle;Max_cycle;Signal;HPM_P1;HPM_P2
2022/09/15 00:00:31;;;;;;;5.37;4.20;;;;;;;18.18;62.90;96792.94;4931885;29;20199;-75
2022/09/15 00:02:58;;;;;;;6.60;4.30;;;;;;;18.15;62.68;96795.84;4933484;29;20195;-75
2022/09/15 00:05:25;;;;;;;5.33;4.23;;;;;;;18.09;62.98;96793.69;4932473;29;20582;-75
2022/09/15 00:07:52;;;;;;;5.37;3.63;;;;;;;18.19;63.06;96789.38;4933079;29;20227;-74
2022/09/15 00:10:19;;;;;;;4.67;4.13;;;;;;;18.29;62.64;96782.44;4933554;29;20193;-75
2022/09/15 00:12:47;;;;;;;7.17;4.70;;;;;;;18.37;62.50;96773.00;4931988;29;20311;-74
2022/09/15 00:15:16;;;;;;;4.57;4.17;;;;;;;18.44;62.14;96771.56;4933125;29;20755;-75
2022/09/15 00:17:48;;;;;;;6.67;4.83;;;;;;;18.48;63.20;96761.69;4931716;29;20207;-77
2022/09/15 00:20:17;;;;;;;6.70;4.33;;;;;;;18.47;62.22;96752.97;4932987;29;20208;-75
2022/09/15 00:22:44;;;;;;;7.00;4.50;;;;;;;18.39;62.26;96771.09;4930488;29;21107;-75
2022/09/15 00:25:13;;;;;;;5.87;4.10;;;;;;;18.19;63.00;96750.06;4931184;29;20617;-76
2022/09/15 00:27:41;;;;;;;5.23;4.27;;;;;;;18.08;63.98;96771.06;4932437;29;20246;-77
2022/09/15 00:30:08;;;;;;;5.20;4.40;;;;;;;17.84;64.86;96764.22;4931894;29;20279;-75
2022/09/15 00:32:35;;;;;;;5.70;4.47;;;;;;;17.78;64.92;96764.66;4931561;29;20286;-76
2022/09/15 00:35:02;;;;;;;7.63;4.50;;;;;;;17.86;64.94;96764.09;4931460;29;20200;-76
2022/09/15 00:37:32;;;;;;;5.07;4.53;;;;;;;17.85;64.83;96752.75;4932859;29;20197;-75
2022/09/15 00:39:59;;;;;;;9.37;5.17;;;;;;;17.86;64.87;96750.97;4931212;29;20193;-76
2022/09/15 00:42:26;;;;;;;6.10;5.03;;;;;;;17.96;64.65;96753.69;4932834;29;20195;-76
2022/09/15 00:44:59;;;;;;;5.07;4.50;;;;;;;17.91;64.90;96753.25;4932218;29;20200;-76
2022/09/15 00:47:37;;;;;;;6.83;5.00;;;;;;;17.81;64.77;96747.88;4931853;29;20229;-75
2022/09/15 00:50:10;;;;;;;5.10;4.43;;;;;;;17.57;65.67;96753.28;4931342;29;20194;-75
2022/09/15 00:52:46;;;;;;;4.97;4.40;;;;;;;17.36;65.72;96759.28;4931024;29;20588;-76
2022/09/15 00:55:16;;;;;;;5.40;4.50;;;;;;;17.39;65.84;96762.53;4931948;29;20188;-76
2022/09/15 00:58:03;;;;;;;4.33;3.93;;;;;;;17.10;66.68;96756.06;4931824;29;20190;-77
2022/09/15 01:00:29;;;;;;;5.97;4.90;;;;;;;16.85;67.44;96751.03;4931428;29;20281;-75
2022/09/15 01:02:57;;;;;;;6.83;4.37;;;;;;;16.75;67.69;96747.44;4932547;29;20198;-76
2022/09/15 01:05:31;;;;;;;5.50;4.40;;;;;;;16.67;67.86;96747.19;4930870;29;20222;-75
2022/09/15 01:08:20;;;;;;;6.23;4.40;;;;;;;16.82;67.71;96746.84;4936519;29;20247;-76
2022/09/15 01:10:48;;;;;;;5.23;4.27;;;;;;;17.02;66.99;96748.78;4924591;29;20207;-77
2022/09/15 01:13:15;;;;;;;7.73;4.80;;;;;;;17.12;66.53;96750.72;4931786;29;20186;-77
2022/09/15 01:16:20;;;;;;;8.50;4.67;;;;;;;17.03;66.17;96749.63;4932850;29;20661;-78
2022/09/15 01:18:53;;;;;;;5.73;4.10;;;;;;;17.05;66.66;96750.34;4929083;29;20263;-74
2022/09/15 01:21:25;;;;;;;9.27;4.80;;;;;;;17.02;66.60;96754.00;4932102;29;20688;-75
2022/09/15 01:24:04;;;;;;;7.37;4.47;;;;;;;17.00;66.74;96749.88;4931516;29;20188;-77
2022/09/15 01:26:55;;;;;;;7.20;4.60;;;;;;;16.87;67.00;96743.91;4930985;29;20596;-77
2022/09/15 01:29:40;;;;;;;5.70;4.53;;;;;;;17.01;66.91;96741.06;4932165;29;20196;-76
2022/09/15 01:35:16;;;;;;;5.03;4.53;;;;;;;16.94;66.68;96738.06;4914059;29;20197;-77
2022/09/15 01:37:49;;;;;;;7.67;4.77;;;;;;;16.83;66.94;96732.00;4932015;29;20247;-76
2022/09/15 01:40:17;;;;;;;7.10;4.40;;;;;;;16.84;67.20;96734.50;4930112;29;20199;-76
2022/09/15 01:42:47;;;;;;;5.87;4.50;;;;;;;16.75;67.15;96734.34;4931954;29;20278;-77
2022/09/15 01:45:22;;;;;;;5.03;4.30;;;;;;;16.70;67.66;96736.47;4913762;29;20273;-76
2022/09/15 01:47:53;;;;;;;5.57;5.07;;;;;;;16.56;67.67;96731.44;4931176;29;20250;-77
2022/09/15 01:50:24;;;;;;;7.13;4.83;;;;;;;16.51;68.06;96738.78;4931564;29;20766;-76
2022/09/15 01:53:01;;;;;;;6.30;4.60;;;;;;;16.60;67.67;96730.25;4929780;29;20851;-74
2022/09/15 01:55:50;;;;;;;5.83;4.63;;;;;;;16.58;67.83;96738.22;4914277;29;20700;-74
2022/09/15 01:58:18;;;;;;;7.47;4.00;;;;;;;16.64;67.54;96742.16;4919032;29;20205;-75
2022/09/15 02:00:52;;;;;;;4.57;4.07;;;;;;;16.70;67.25;96736.47;4914178;29;20274;-74
2022/09/15 02:03:26;;;;;;;5.43;3.70;;;;;;;16.67;66.98;96741.94;4931596;29;20216;-75
2022/09/15 02:06:01;;;;;;;5.10;4.30;;;;;;;16.76;66.82;96746.47;4932249;29;20671;-77
2022/09/15 02:08:46;;;;;;;3.93;3.53;;;;;;;16.82;66.34;96727.69;4933635;29;20285;-76
2022/09/15 02:11:19;;;;;;;7.63;4.20;;;;;;;16.93;65.91;96738.19;4930404;29;20658;-76
2022/09/15 02:14:16;;;;;;;6.57;4.33;;;;;;;16.99;66.09;96749.03;4930904;29;20185;-76
2022/09/15 02:16:48;;;;;;;4.50;4.00;;;;;;;16.88;66.02;96748.16;4931332;29;20780;-75
2022/09/15 02:19:30;;;;;;;6.50;4.60;;;;;;;16.86;65.89;96747.44;4929975;29;20194;-75
2022/09/15 02:22:09;;;;;;;4.57;4.17;;;;;;;16.77;66.40;96745.53;4931814;29;20246;-77
2022/09/15 02:24:44;;;;;;;5.30;4.13;;;;;;;16.83;65.98;96743.31;4930770;29;20848;-75
2022/09/15 02:27:17;;;;;;;5.33;4.43;;;;;;;16.97;65.98;96752.72;4930082;29;20247;-75
2022/09/15 02:29:47;;;;;;;5.57;5.07;;;;;;;16.87;65.79;96741.28;4931111;29;20194;-76
2022/09/15 02:32:17;;;;;;;5.90;4.60;;;;;;;16.77;66.07;96741.16;4929521;29;20188;-75
2022/09/15 02:34:49;;;;;;;4.50;3.83;;;;;;;16.69;66.43;96751.31;4930878;29;20284;-75
2022/09/15 02:37:20;;;;;;;4.70;4.27;;;;;;;16.79;66.34;96741.03;4929822;29;20195;-76
2022/09/15 02:39:52;;;;;;;4.50;3.97;;;;;;;16.79;66.28;96746.25;4930363;29;20262;-77
2022/09/15 02:42:27;;;;;;;6.57;4.60;;;;;;;16.66;66.74;96745.50;4930825;29;20648;-77
2022/09/15 02:44:54;;;;;;;5.80;4.73;;;;;;;16.67;66.79;96758.44;4929445;29;20672;-77
2022/09/15 02:47:22;;;;;;;4.93;4.43;;;;;;;16.74;66.62;96753.59;4930838;29;20323;-77
2022/09/15 02:49:50;;;;;;;5.33;4.43;;;;;;;16.72;66.42;96738.03;4929163;29;20194;-77
2022/09/15 02:52:17;;;;;;;8.17;4.40;;;;;;;16.76;66.18;96729.00;4930844;29;20641;-76
2022/09/15 02:54:43;;;;;;;6.60;4.60;;;;;;;16.83;66.40;96727.59;4929872;29;20205;-76
2022/09/15 02:57:12;;;;;;;5.80;4.40;;;;;;;16.87;65.67;96715.13;4930253;29;20221;-77
2022/09/15 03:02:33;;;;;;;7.77;4.20;;;;;;;17.02;65.87;96742.75;4933038;29;20592;-76
2022/09/15 03:05:01;;;;;;;5.20;4.70;;;;;;;17.08;65.82;96732.63;4931672;29;20253;-76
2022/09/15 03:07:29;;;;;;;7.00;4.50;;;;;;;17.11;65.38;96736.78;4932240;29;20234;-77
2022/09/15 03:09:56;;;;;;;4.93;4.23;;;;;;;17.20;65.99;96730.88;4931294;29;20193;-76
2022/09/15 03:12:24;;;;;;;6.17;4.73;;;;;;;17.36;64.96;96730.50;4930357;29;20186;-77
2022/09/15 03:14:51;;;;;;;5.13;4.53;;;;;;;17.40;64.21;96745.00;4928090;29;20194;-78
2022/09/15 03:17:18;;;;;;;8.63;5.10;;;;;;;17.34;64.82;96738.47;4930400;29;20186;-77
2022/09/15 03:19:45;;;;;;;20.60;7.17;;;;;;;17.29;64.77;96739.78;4930984;29;20616;-76
2022/09/15 03:22:12;;;;;;;6.20;5.13;;;;;;;17.22;65.45;96743.81;4934299;29;20265;-75
2022/09/15 03:24:41;;;;;;;7.33;5.13;;;;;;;17.08;65.62;96747.50;4932948;29;20314;-76
2022/09/15 03:27:08;;;;;;;6.17;4.90;;;;;;;16.98;65.76;96746.53;4934237;29;20287;-77
2022/09/15 03:29:35;;;;;;;6.40;5.73;;;;;;;16.82;66.24;96738.16;4933917;29;20188;-77
2022/09/15 03:32:01;;;;;;;5.50;4.80;;;;;;;16.65;66.86;96760.34;4932963;29;20204;-76
2022/09/15 03:34:28;;;;;;;6.37;5.43;;;;;;;16.59;67.13;96760.00;4934118;29;20671;-75
2022/09/15 03:36:55;;;;;;;6.10;5.03;;;;;;;16.52;67.45;96759.59;4932425;29;20194;-75
2022/09/15 03:39:23;;;;;;;8.33;5.00;;;;;;;16.16;68.79;96749.16;4929361;29;20199;-77
2022/09/15 03:41:50;;;;;;;8.50;5.30;;;;;;;15.83;69.75;96749.81;4930199;29;20234;-75
2022/09/15 03:44:17;;;;;;;9.10;4.90;;;;;;;15.72;70.47;96735.88;4933752;29;20194;-74
2022/09/15 03:46:45;;;;;;;11.13;5.43;;;;;;;15.67;70.87;96749.25;4931462;29;20607;-76
2022/09/15 03:49:13;;;;;;;5.47;4.70;;;;;;;15.58;70.88;96726.38;4932640;29;20200;-75
2022/09/15 03:51:40;;;;;;;5.83;4.83;;;;;;;15.69;70.92;96744.75;4933552;29;20194;-76
2022/09/15 03:54:08;;;;;;;5.73;4.70;;;;;;;15.86;70.38;96747.00;4932059;29;20642;-76
2022/09/15 03:56:34;;;;;;;6.70;5.07;;;;;;;16.06;69.68;96763.84;4933610;29;20198;-77
2022/09/15 03:59:04;;;;;;;6.40;5.13;;;;;;;16.02;69.45;96751.94;4932614;29;20194;-77
2022/09/15 04:01:31;;;;;;;5.10;4.27;;;;;;;16.14;68.73;96744.06;4933317;29;20191;-76
2022/09/15 04:03:59;;;;;;;5.63;3.70;;;;;;;16.09;68.43;96714.81;4933261;29;20230;-76
2022/09/15 04:06:26;;;;;;;5.37;3.40;;;;;;;16.38;67.49;96731.00;4934435;29;20237;-74
2022/09/15 04:08:54;;;;;;;4.13;3.60;;;;;;;16.58;66.61;96726.94;4933108;29;20782;-75
2022/09/15 04:11:21;;;;;;;5.13;4.10;;;;;;;16.80;65.72;96727.81;4931973;29;20682;-75
2022/09/15 04:13:49;;;;;;;5.73;3.20;;;;;;;16.91;65.35;96732.25;4933128;29;20192;-75
2022/09/15 04:16:18;;;;;;;4.40;3.90;;;;;;;17.04;64.90;96725.94;4931613;29;20195;-75
2022/09/15 04:18:45;;;;;;;11.13;7.60;;;;;;;17.17;64.79;96730.25;4932674;29;20211;-77
2022/09/15 04:21:15;;;;;;;5.00;4.00;;;;;;;17.22;64.13;96713.25;4931701;29;20215;-76
2022/09/15 04:23:43;;;;;;;6.67;4.47;;;;;;;17.51;63.85;96731.97;4932395;29;20582;-75
2022/09/15 04:26:34;;;;;;;6.30;4.17;;;;;;;17.64;63.31;96730.06;4950106;29;20229;-77
2022/09/15 04:29:04;;;;;;;6.47;4.27;;;;;;;17.81;63.36;96726.91;4949942;28;20222;-75
2022/09/15 04:31:31;;;;;;;8.17;5.53;;;;;;;17.83;63.26;96731.09;4951663;28;20195;-76
2022/09/15 04:34:00;;;;;;;6.67;4.87;;;;;;;18.05;61.99;96734.63;4950243;29;20301;-75
2022/09/15 04:36:28;;;;;;;6.57;4.50;;;;;;;17.99;62.81;96741.16;4950149;29;20211;-75
2022/09/15 04:38:56;;;;;;;7.93;4.20;;;;;;;17.92;61.95;96729.53;4950156;29;20962;-75
2022/09/15 04:41:24;;;;;;;9.67;4.83;;;;;;;17.89;62.49;96756.81;4950856;28;20667;-75
2022/09/15 04:43:51;;;;;;;6.97;4.50;;;;;;;17.85;63.28;96744.91;4951686;28;20212;-75
2022/09/15 04:46:19;;;;;;;6.10;4.77;;;;;;;17.88;62.83;96762.16;4933233;29;20194;-75
2022/09/15 04:48:48;;;;;;;9.20;4.47;;;;;;;17.93;62.62;96772.28;4951485;28;20265;-75
2022/09/15 04:51:18;;;;;;;6.37;4.67;;;;;;;17.55;63.87;96762.19;4950231;29;20212;-76
2022/09/15 04:53:47;;;;;;;7.30;4.23;;;;;;;17.42;64.37;96757.03;4951228;28;20644;-76
2022/09/15 04:56:18;;;;;;;7.20;4.30;;;;;;;17.50;63.83;96770.41;4949845;29;20253;-76
2022/09/15 04:58:49;;;;;;;5.10;4.07;;;;;;;17.64;63.98;96774.59;4949870;28;20203;-76
2022/09/15 05:01:20;;;;;;;4.60;4.20;;;;;;;17.45;64.06;96775.16;4951697;28;20689;-75
2022/09/15 05:03:47;;;;;;;6.97;5.47;;;;;;;17.41;64.29;96770.25;4952352;28;20699;-76
2022/09/15 05:06:18;;;;;;;8.77;4.70;;;;;;;17.27;64.16;96744.31;4951605;28;20670;-76
2022/09/15 05:08:47;;;;;;;5.23;4.30;;;;;;;17.70;63.49;96769.69;4950301;28;20683;-76
2022/09/15 05:11:18;;;;;;;5.03;4.53;;;;;;;17.81;63.36;96777.53;4949467;29;20594;-76
2022/09/15 05:13:45;;;;;;;6.03;4.67;;;;;;;17.86;63.27;96762.31;4951173;28;20207;-76
2022/09/15 05:16:15;;;;;;;5.03;4.37;;;;;;;17.97;62.71;96752.75;4949797;28;20585;-75
2022/09/15 05:18:44;;;;;;;6.47;4.63;;;;;;;18.02;62.39;96761.91;4951065;28;20187;-76
2022/09/15 05:21:16;;;;;;;6.03;3.90;;;;;;;18.09;61.80;96749.16;4951119;28;20624;-75
2022/09/15 05:23:48;;;;;;;6.57;4.50;;;;;;;18.45;61.32;96751.44;4950024;29;20288;-77
2022/09/15 05:26:18;;;;;;;4.33;3.90;;;;;;;18.53;60.62;96746.41;4968018;28;20747;-76
2022/09/15 05:28:45;;;;;;;5.80;3.93;;;;;;;18.79;60.51;96744.25;4952140;28;20345;-77
2022/09/15 05:31:19;;;;;;;5.77;3.80;;;;;;;19.03;59.48;96750.91;4969933;28;20625;-76
2022/09/15 05:33:48;;;;;;;10.50;4.30;;;;;;;19.21;58.46;96748.50;4967420;28;20610;-76
2022/09/15 05:36:23;;;;;;;8.50;4.00;;;;;;;19.49;58.03;96751.31;4969811;28;20585;-76
2022/09/15 05:38:53;;;;;;;7.70;4.20;;;;;;;19.74;57.49;96750.03;4951194;28;20203;-75
2022/09/15 05:41:21;;;;;;;6.77;3.87;;;;;;;19.91;56.74;96749.41;4969792;28;20207;-75
2022/09/15 05:43:49;;;;;;;11.73;3.70;;;;;;;19.96;56.57;96741.94;4969254;28;20203;-76
2022/09/15 05:46:18;;;;;;;7.70;4.60;;;;;;;20.17;56.10;96740.03;4951473;28;20242;-76
2022/09/15 05:48:47;;;;;;;7.10;4.00;;;;;;;20.36;55.51;96747.16;4951812;28;20238;-76
2022/09/15 05:51:14;;;;;;;9.53;4.70;;;;;;;20.30;55.25;96741.63;4968259;28;20199;-77
2022/09/15 05:53:41;;;;;;;11.63;4.80;;;;;;;20.55;55.09;96739.28;4969580;28;20398;-76
2022/09/15 05:56:10;;;;;;;8.40;4.53;;;;;;;20.74;54.41;96734.00;4967956;28;20604;-76
2022/09/15 05:58:42;;;;;;;6.20;3.37;;;;;;;20.91;53.62;96741.22;4969428;28;20742;-77
2022/09/15 06:01:21;;;;;;;5.77;3.30;;;;;;;20.91;54.06;96741.22;4951256;28;20192;-76
2022/09/15 06:03:49;;;;;;;4.03;3.43;;;;;;;20.89;53.88;96743.16;4970801;28;20263;-76
2022/09/15 06:06:17;;;;;;;7.70;4.07;;;;;;;20.82;53.98;96746.47;4969505;28;20196;-76
2022/09/15 06:08:48;;;;;;;7.27;3.70;;;;;;;20.93;53.55;96734.00;4967455;28;20232;-78
2022/09/15 06:11:23;;;;;;;9.03;4.10;;;;;;;20.96;54.16;96746.03;4969013;28;20303;-76
2022/09/15 06:13:50;;;;;;;7.57;4.17;;;;;;;21.04;53.70;96736.50;4967717;28;20796;-76
2022/09/15 06:16:20;;;;;;;9.17;4.10;;;;;;;21.20;53.76;96746.44;4968593;28;20196;-76
2022/09/15 06:18:50;;;;;;;5.97;3.50;;;;;;;21.08;54.31;96741.50;4968988;28;20195;-75
2022/09/15 06:21:24;;;;;;;7.93;3.83;;;;;;;20.99;54.57;96706.25;4967600;28;20197;-77
2022/09/15 06:23:59;;;;;;;7.00;3.80;;;;;;;21.21;55.30;96748.09;4936523;28;20208;-77
2022/09/15 06:26:27;;;;;;;7.33;3.77;;;;;;;21.27;54.82;96747.53;4967724;28;20240;-75
2022/09/15 06:28:58;;;;;;;5.33;3.90;;;;;;;21.44;54.52;96735.41;4951964;28;20252;-75
2022/09/15 06:31:27;;;;;;;8.97;3.60;;;;;;;21.54;54.29;96728.31;4967335;28;20287;-76
2022/09/15 06:33:55;;;;;;;5.03;3.40;;;;;;;21.69;54.59;96734.75;4968313;28;20239;-76
2022/09/15 06:36:26;;;;;;;5.63;3.23;;;;;;;21.67;54.23;96734.09;4969818;28;20261;-76
2022/09/15 06:38:53;;;;;;;7.30;3.30;;;;;;;21.71;53.99;96738.91;4966473;28;20252;-74
2022/09/15 06:41:20;;;;;;;4.43;3.00;;;;;;;21.78;54.14;96737.34;4951880;28;20203;-76
2022/09/15 06:43:48;;;;;;;4.23;3.13;;;;;;;21.89;54.08;96736.34;4972044;28;20284;-76
2022/09/15 06:46:19;;;;;;;6.47;3.33;;;;;;;21.95;53.54;96732.31;4972671;28;20205;-76
2022/09/15 06:48:47;;;;;;;8.70;3.50;;;;;;;21.95;52.95;96737.59;4973752;28;20220;-76
2022/09/15 06:51:35;;;;;;;4.20;2.80;;;;;;;21.94;53.74;96747.31;4978395;28;20266;-77
2022/09/15 06:54:03;;;;;;;4.17;3.23;;;;;;;22.02;53.91;96739.50;4953654;28;20284;-76
2022/09/15 06:56:30;;;;;;;8.17;3.50;;;;;;;22.36;52.99;96747.63;4968274;28;20192;-76
2022/09/15 06:59:03;;;;;;;4.57;3.33;;;;;;;22.65;51.43;96748.22;4973327;28;20191;-75
2022/09/15 07:01:31;;;;;;;9.43;4.20;;;;;;;22.83;51.32;96740.31;4968659;28;20273;-76
2022/09/15 07:04:01;;;;;;;6.30;3.60;;;;;;;22.91;50.90;96729.81;4971691;28;20202;-77
2022/09/15 07:06:30;;;;;;;5.83;3.20;;;;;;;23.16;50.50;96735.09;4969594;28;20283;-79
2022/09/15 07:08:58;;;;;;;4.47;2.73;;;;;;;23.31;49.38;96735.38;4934803;28;20224;-76
2022/09/15 07:11:26;;;;;;;4.07;2.37;;;;;;;23.33;49.21;96726.34;4968469;28;20202;-76
2022/09/15 07:13:52;;;;;;;10.23;2.83;;;;;;;23.44;48.90;96735.81;4967111;28;20288;-76
2022/09/15 07:16:20;;;;;;;4.37;2.60;;;;;;;23.59;48.12;96723.69;4968835;28;20195;-76
2022/09/15 07:18:48;;;;;;;5.17;2.90;;;;;;;23.74;48.86;96716.78;4968132;28;20193;-77
2022/09/15 07:21:19;;;;;;;3.57;2.67;;;;;;;23.90;48.19;96729.25;4969517;28;20226;-76
2022/09/15 07:23:48;;;;;;;3.83;2.97;;;;;;;24.12;48.13;96734.00;4968087;28;20223;-75
2022/09/15 07:26:28;;;;;;;5.13;2.63;;;;;;;24.20;46.22;96726.06;4968497;28;20253;-79
2022/09/15 07:28:58;;;;;;;5.70;3.87;;;;;;;24.15;47.02;96721.25;4970208;28;20278;-76
2022/09/15 07:31:28;;;;;;;4.53;2.33;;;;;;;24.34;46.42;96722.00;4934003;28;20225;-76
2022/09/15 07:33:57;;;;;;;5.23;3.23;;;;;;;24.50;46.24;96730.78;4952373;28;20594;-77
2022/09/15 07:36:25;;;;;;;3.77;2.57;;;;;;;24.71;45.50;96725.03;4969344;28;20647;-77
2022/09/15 07:38:52;;;;;;;3.03;2.40;;;;;;;24.80;44.63;96722.22;4967936;28;20199;-75
2022/09/15 07:41:23;;;;;;;3.40;2.50;;;;;;;24.91;45.21;96731.69;4967573;28;20202;-76
2022/09/15 07:43:52;;;;;;;6.30;2.90;;;;;;;24.99;45.24;96729.00;4967050;28;20203;-76
2022/09/15 07:46:21;;;;;;;5.53;2.87;;;;;;;25.04;45.58;96721.38;4967995;28;20204;-76
2022/09/15 07:48:50;;;;;;;11.00;4.20;;;;;;;25.35;44.37;96722.31;4967198;28;20317;-76
2022/09/15 07:51:18;;;;;;;7.83;4.57;;;;;;;25.51;43.08;96727.63;4967783;28;20690;-76
2022/09/15 07:53:47;;;;;;;10.23;4.60;;;;;;;25.68;42.66;96729.25;4966348;28;20240;-75
2022/09/15 07:56:18;;;;;;;6.00;3.53;;;;;;;25.80;42.56;96722.56;4967393;28;20286;-76
2022/09/15 07:58:47;;;;;;;5.70;2.43;;;;;;;25.95;41.29;96724.47;4949628;28;20232;-77
2022/09/15 08:01:15;;;;;;;3.87;2.17;;;;;;;26.05;41.47;96735.75;4966601;28;20223;-75
2022/09/15 08:03:49;;;;;;;6.67;3.13;;;;;;;26.12;41.43;96739.38;4970531;28;20259;-76
2022/09/15 08:06:21;;;;;;;5.13;2.60;;;;;;;26.23;40.71;96723.91;4938672;28;20215;-76
2022/09/15 08:09:04;;;;;;;6.20;2.57;;;;;;;26.42;40.92;96723.44;4948641;28;20236;-76
2022/09/15 08:11:31;;;;;;;6.57;2.87;;;;;;;26.50;40.83;96726.03;4954116;28;20202;-75
2022/09/15 08:14:01;;;;;;;5.03;2.80;;;;;;;26.61;40.32;96720.31;4954059;28;20197;-77
2022/09/15 08:16:29;;;;;;;10.17;2.87;;;;;;;26.77;40.31;96724.72;4953950;28;20202;-78
2022/09/15 08:18:56;;;;;;;4.83;2.83;;;;;;;26.77;39.94;96711.44;4970616;28;20193;-77
2022/09/15 08:21:23;;;;;;;4.57;2.57;;;;;;;26.80;40.20;96715.56;4955130;28;20200;-79
2022/09/15 08:24:09;;;;;;;7.27;2.87;;;;;;;26.77;40.13;96722.06;4939451;28;20236;-77
2022/09/15 08:26:37;;;;;;;9.77;3.17;;;;;;;26.95;40.06;96730.56;4970870;28;20200;-76
2022/09/15 08:29:06;;;;;;;6.93;3.10;;;;;;;27.07;39.73;96723.81;4971402;28;20810;-77
2022/09/15 08:31:38;;;;;;;5.17;3.00;;;;;;;27.22;39.28;96729.16;4970002;28;20684;-76
2022/09/15 08:34:05;;;;;;;5.33;2.67;;;;;;;27.31;38.09;96728.06;4972937;28;20224;-76
2022/09/15 08:36:33;;;;;;;5.37;2.60;;;;;;;27.40;37.81;96724.34;4969904;28;20259;-77
2022/09/15 08:39:01;;;;;;;4.97;2.97;;;;;;;27.49;37.64;96714.47;4970917;28;20235;-76
2022/09/15 08:41:32;;;;;;;4.33;2.80;;;;;;;27.62;37.44;96718.13;4969375;28;20629;-79
2022/09/15 08:44:21;;;;;;;4.23;2.17;;;;;;;27.82;37.04;96713.09;4953499;28;20196;-76
2022/09/15 08:47:19;;;;;;;5.53;3.00;;;;;;;27.87;37.33;96710.69;4970242;28;20193;-75
2022/09/15 08:50:30;;;;;;;5.80;3.40;;;;;;;27.84;37.07;96717.19;4967699;28;20239;-76
2022/09/15 08:53:05;;;;;;;20.23;5.50;;;;;;;28.02;37.23;96719.53;4945748;28;20204;-77
2022/09/15 08:55:42;;;;;;;5.47;3.20;;;;;;;28.10;36.62;96716.75;4953047;28;20196;-76
2022/09/15 08:58:30;;;;;;;16.63;3.53;;;;;;;28.16;36.55;96708.00;4951337;28;20204;-75
2022/09/15 09:01:10;;;;;;;5.50;3.20;;;;;;;28.24;36.72;96713.22;4970305;28;20688;-76
2022/09/15 09:04:10;;;;;;;7.27;3.70;;;;;;;28.35;36.27;96710.09;4953371;28;20227;-77
2022/09/15 09:07:09;;;;;;;6.87;2.80;;;;;;;28.39;36.06;96702.53;4968869;28;20699;-76
2022/09/15 09:09:55;;;;;;;5.30;3.00;;;;;;;28.50;35.52;96702.84;4973297;28;20215;-76
2022/09/15 09:13:00;;;;;;;6.50;2.83;;;;;;;28.62;35.80;96701.38;4971748;28;20188;-76
2022/09/15 09:15:35;;;;;;;4.80;3.00;;;;;;;28.72;35.15;96693.91;4969287;28;20193;-76
2022/09/15 09:18:11;;;;;;;4.33;2.73;;;;;;;28.82;34.35;96690.91;4972665;28;20207;-77
2022/09/15 09:20:51;;;;;;;8.13;3.40;;;;;;;28.79;35.00;96681.44;4970858;28;20189;-77
2022/09/15 09:23:25;;;;;;;5.63;3.07;;;;;;;28.93;35.04;96693.84;4970426;28;20204;-76
2022/09/15 09:25:52;;;;;;;11.70;4.27;;;;;;;29.02;34.76;96693.75;4969822;28;20692;-77
2022/09/15 09:28:29;;;;;;;7.63;4.03;;;;;;;29.11;34.92;96684.56;4968516;28;20285;-76
2022/09/15 09:31:02;;;;;;;9.17;4.97;;;;;;;29.09;35.14;96687.44;4969550;28;20219;-76
2022/09/15 09:33:50;;;;;;;8.80;5.40;;;;;;;29.11;35.59;96684.56;4968801;28;20224;-76
2022/09/15 09:36:17;;;;;;;5.73;3.30;;;;;;;29.22;34.44;96670.75;4969349;28;20286;-75
2022/09/15 09:38:47;;;;;;;5.20;2.33;;;;;;;29.19;33.09;96676.44;4952544;28;20673;-77
2022/09/15 09:41:17;;;;;;;6.13;3.10;;;;;;;29.31;33.55;96674.88;4971403;28;20197;-76
2022/09/15 09:43:51;;;;;;;9.23;2.90;;;;;;;29.44;34.17;96669.66;4972107;28;20199;-76
2022/09/15 09:46:20;;;;;;;7.63;2.30;;;;;;;29.46;33.43;96665.78;4971121;28;20228;-76
2022/09/15 09:49:33;;;;;;;4.40;2.10;;;;;;;29.45;33.29;96671.31;4938552;28;20290;-76
2022/09/15 09:52:03;;;;;;;3.67;2.27;;;;;;;29.38;33.62;96665.09;4953041;28;20657;-76
2022/09/15 09:54:32;;;;;;;5.43;2.53;;;;;;;29.39;33.71;96662.22;4968161;28;20196;-75
2022/09/15 09:57:38;;;;;;;3.90;2.20;;;;;;;29.68;33.54;96661.16;4952509;28;20220;-75
2022/09/15 10:00:39;;;;;;;5.57;2.20;;;;;;;29.92;32.86;96659.88;4971111;28;20279;-77
2022/09/15 10:03:17;;;;;;;6.87;3.20;;;;;;;30.06;32.98;96662.38;4952052;28;20197;-74
2022/09/15 10:05:58;;;;;;;7.03;2.90;;;;;;;30.15;32.66;96655.81;4970494;28;20188;-77
2022/09/15 10:08:26;;;;;;;6.63;2.50;;;;;;;30.20;33.03;96661.41;4968053;28;20197;-76
2022/09/15 10:10:59;;;;;;;7.87;2.33;;;;;;;30.26;32.36;96652.56;4968440;28;20795;-77
2022/09/15 10:13:26;;;;;;;6.33;2.90;;;;;;;30.36;32.94;96641.53;4950971;28;20291;-76
2022/09/15 10:15:56;;;;;;;9.47;3.40;;;;;;;30.52;32.05;96643.84;4968183;28;20609;-76
2022/09/15 10:18:37;;;;;;;6.57;3.07;;;;;;;30.63;31.97;96642.38;4968952;28;20627;-76
2022/09/15 10:21:07;;;;;;;6.83;3.77;;;;;;;30.66;32.19;96639.31;4967235;28;20225;-76
2022/09/15 10:23:35;;;;;;;3.57;2.43;;;;;;;30.78;31.97;96627.78;4968714;28;20220;-76
2022/09/15 10:26:13;;;;;;;5.23;2.33;;;;;;;30.80;30.61;96630.25;4967649;28;20275;-76
2022/09/15 10:28:42;;;;;;;3.90;2.23;;;;;;;30.67;30.94;96615.03;4969342;28;20303;-75
2022/09/15 10:31:25;;;;;;;6.13;2.70;;;;;;;30.74;31.29;96626.56;4970069;28;20223;-79
2022/09/15 10:33:52;;;;;;;4.83;2.27;;;;;;;30.92;30.91;96620.59;4968062;28;20204;-75
2022/09/15 10:36:28;;;;;;;5.07;2.53;;;;;;;30.95;30.86;96610.34;4968872;28;20220;-80
2022/09/15 10:39:20;;;;;;;4.40;2.70;;;;;;;31.12;31.06;96618.72;4951076;28;20212;-76
2022/09/15 10:42:08;;;;;;;9.17;3.27;;;;;;;31.19;31.25;96614.19;4967473;28;20229;-75
2022/09/15 10:44:51;;;;;;;7.30;3.07;;;;;;;31.31;30.03;96604.50;4951011;28;20196;-75
2022/09/15 10:47:39;;;;;;;6.80;2.90;;;;;;;31.41;30.32;96609.47;4967288;28;20208;-76
2022/09/15 10:50:20;;;;;;;7.13;2.58;;;;;;;31.57;29.54;96604.47;4968646;28;20641;-76
2022/09/15 10:53:19;;;;;;;3.65;2.42;;;;;;;31.46;30.07;96605.13;4968013;28;20220;-76
2022/09/15 10:55:57;;;;;;;12.97;3.13;;;;;;;31.55;30.44;96598.47;4954508;28;20668;-76
2022/09/15 10:58:47;;;;;;;7.60;3.00;;;;;;;31.61;29.63;96611.06;4968266;28;20196;-76
2022/09/15 11:01:17;;;;;;;11.77;3.33;;;;;;;31.72;29.84;96596.97;4923495;28;20193;-76
2022/09/15 11:03:50;;;;;;;8.43;3.15;;;;;;;31.80;29.15;96591.38;4949163;28;20956;-76
2022/09/15 11:06:31;;;;;;;5.32;2.35;;;;;;;31.87;28.61;96591.34;4968594;28;20241;-76
2022/09/15 11:09:22;;;;;;;8.65;2.17;;;;;;;31.86;28.15;96569.09;4949301;28;20220;-76
2022/09/15 11:11:49;;;;;;;10.80;3.17;;;;;;;31.94;28.57;96571.53;4967977;28;20180;-76
2022/09/15 11:14:43;;;;;;;8.50;3.35;;;;;;;31.86;28.24;96568.28;4968406;28;20723;-80
2022/09/15 11:17:29;;;;;;;7.45;3.95;;;;;;;31.95;28.45;96567.03;4966938;28;20295;-76
2022/09/15 11:20:24;;;;;;;6.65;3.10;;;;;;;31.99;28.94;96566.38;4970161;28;20188;-82
2022/09/15 11:22:53;;;;;;;10.82;3.40;;;;;;;32.04;29.33;96557.69;4970715;28;20201;-78
2022/09/15 11:25:24;;;;;;;4.00;2.60;;;;;;;32.16;28.84;96553.28;4966944;28;20295;-75
2022/09/15 11:28:03;;;;;;;7.60;4.07;;;;;;;32.14;29.40;96546.50;4970449;28;20184;-77
2022/09/15 11:30:57;;;;;;;7.63;2.38;;;;;;;32.07;28.74;96544.69;4952047;28;20353;-77
2022/09/15 11:33:46;;;;;;;8.95;3.17;;;;;;;32.32;26.32;96538.53;4968150;28;20208;-77
2022/09/15 11:36:20;;;;;;;6.78;2.88;;;;;;;32.44;27.33;96544.84;4951955;28;20692;-77
2022/09/15 11:38:56;;;;;;;11.30;3.60;;;;;;;32.67;26.83;96535.19;4967561;28;20272;-76
2022/09/15 11:41:33;;;;;;;9.25;4.05;;;;;;;32.73;26.56;96546.88;4971994;28;20200;-76
2022/09/15 11:44:42;;;;;;;10.38;3.90;;;;;;;32.80;26.56;96539.59;4971557;28;20191;-78
2022/09/15 11:47:30;;;;;;;14.00;4.20;;;;;;;32.91;26.38;96544.25;4954368;28;20207;-75
2022/09/15 11:50:08;;;;;;;10.15;3.95;;;;;;;32.97;25.22;96529.13;4971702;28;20223;-76
2022/09/15 11:52:57;;;;;;;9.40;3.30;;;;;;;32.89;25.50;96532.94;4970418;28;20627;-75
2022/09/15 11:56:18;;;;;;;9.93;3.00;;;;;;;32.82;25.99;96537.53;4953899;28;20672;-76
2022/09/15 11:59:11;;;;;;;9.52;3.20;;;;;;;32.98;25.54;96528.94;4919178;28;20207;-75
2022/09/15 12:01:58;;;;;;;5.07;2.72;;;;;;;33.17;25.28;96529.75;4970058;28;20185;-77
2022/09/15 12:04:30;;;;;;;12.75;3.47;;;;;;;33.27;25.66;96524.69;4970769;28;20189;-77
2022/09/15 12:07:12;;;;;;;7.65;2.67;;;;;;;33.30;24.91;96519.72;4972423;28;20740;-78